createdAt,value
2023-07-26T00:02:19.930Z,67.36
2023-07-26T00:04:46.339Z,67.41
2023-07-26T00:07:12.702Z,67.58
2023-07-26T00:09:39.008Z,67.81
2023-07-26T00:12:05.863Z,67.90
2023-07-26T00:14:32.355Z,68.34
2023-07-26T00:16:58.807Z,68.64
2023-07-26T00:19:25.306Z,68.80
2023-07-26T00:21:51.721Z,68.80
2023-07-26T00:24:18.066Z,68.71
2023-07-26T00:26:44.412Z,68.71
2023-07-26T00:29:10.811Z,68.99
2023-07-26T00:31:37.380Z,69.02
2023-07-26T00:34:03.868Z,69.06
2023-07-26T00:36:30.758Z,69.19
2023-07-26T00:38:57.430Z,69.31
2023-07-26T00:41:24.073Z,69.61
2023-07-26T00:43:50.517Z,69.77
2023-07-26T00:46:17.038Z,69.79
2023-07-26T00:48:43.728Z,69.80
2023-07-26T00:51:10.531Z,69.79
2023-07-26T00:53:37.302Z,69.88
2023-07-26T00:56:03.925Z,69.75
2023-07-26T00:58:30.513Z,69.90
2023-07-26T01:00:57.920Z,69.87
2023-07-26T01:03:24.353Z,69.80
2023-07-26T01:06:25.469Z,69.54
2023-07-26T01:09:03.401Z,69.29
2023-07-26T01:11:39.371Z,69.19
2023-07-26T01:14:18.198Z,69.12
2023-07-26T01:16:45.646Z,68.95
2023-07-26T01:19:12.040Z,68.92
2023-07-26T01:21:38.544Z,69.29
2023-07-26T01:24:05.269Z,69.23
2023-07-26T01:26:31.755Z,68.85
2023-07-26T01:28:58.151Z,68.86
2023-07-26T01:31:25.573Z,68.67
2023-07-26T01:33:52.953Z,68.64
2023-07-26T01:36:24.186Z,68.99
2023-07-26T01:38:52.236Z,68.93
2023-07-26T01:41:19.371Z,68.47
2023-07-26T01:43:45.860Z,68.02
2023-07-26T01:46:13.381Z,67.83
2023-07-26T01:48:40.850Z,67.85
2023-07-26T01:51:08.096Z,68.29
2023-07-26T01:53:34.940Z,68.63
2023-07-26T01:56:01.872Z,68.60
2023-07-26T01:58:28.406Z,68.62
2023-07-26T02:00:55.272Z,68.61
2023-07-26T02:03:22.311Z,68.77
2023-07-26T02:05:49.248Z,68.59
2023-07-26T02:08:18.233Z,68.39
2023-07-26T02:10:44.896Z,68.21
2023-07-26T02:13:11.403Z,68.26
2023-07-26T02:15:37.846Z,68.39
2023-07-26T02:18:04.267Z,68.55
2023-07-26T02:20:30.736Z,68.75
2023-07-26T02:22:57.879Z,68.69
2023-07-26T02:25:24.346Z,68.68
2023-07-26T02:27:51.214Z,68.33
2023-07-26T02:30:17.706Z,68.24
2023-07-26T02:32:44.092Z,68.48
2023-07-26T02:35:10.524Z,68.94
2023-07-26T02:37:36.961Z,69.21
2023-07-26T02:40:05.186Z,69.36
2023-07-26T02:42:31.671Z,69.43
2023-07-26T02:44:59.338Z,69.38
2023-07-26T02:47:25.775Z,69.28
2023-07-26T02:49:52.180Z,69.30
2023-07-26T02:52:18.614Z,69.27
2023-07-26T02:54:45.033Z,69.50
2023-07-26T02:57:11.481Z,69.63
2023-07-26T02:59:37.888Z,69.60
2023-07-26T03:02:04.514Z,69.50
2023-07-26T03:04:30.867Z,69.24
2023-07-26T03:06:57.248Z,69.23
2023-07-26T03:09:23.654Z,69.46
2023-07-26T03:11:49.995Z,69.71
2023-07-26T03:14:16.375Z,69.68
2023-07-26T03:16:44.721Z,69.73
2023-07-26T03:19:11.478Z,69.74
2023-07-26T03:21:38.001Z,69.85
2023-07-26T03:24:04.791Z,69.65
2023-07-26T03:26:31.359Z,69.77
2023-07-26T03:28:58.027Z,70.13
2023-07-26T03:31:24.374Z,70.34
2023-07-26T03:33:50.773Z,70.55
2023-07-26T03:36:17.296Z,70.64
2023-07-26T03:38:43.786Z,70.62
2023-07-26T03:41:10.092Z,70.56
2023-07-26T03:43:36.474Z,70.54
2023-07-26T03:46:03.404Z,70.78
2023-07-26T03:48:29.806Z,70.94
2023-07-26T03:50:56.197Z,70.95
2023-07-26T03:53:22.524Z,70.77
2023-07-26T03:55:48.922Z,70.98
2023-07-26T03:58:15.251Z,70.89
2023-07-26T04:00:41.609Z,70.74
2023-07-26T04:03:08.289Z,70.87
2023-07-26T04:05:35.148Z,71.02
2023-07-26T04:08:01.561Z,71.26
2023-07-26T04:10:28.654Z,71.21
2023-07-26T04:12:55.068Z,71.23
2023-07-26T04:15:21.378Z,71.02
2023-07-26T04:17:47.932Z,70.67
2023-07-26T04:20:14.363Z,70.36
2023-07-26T04:22:40.953Z,70.14
2023-07-26T04:25:07.812Z,70.31
2023-07-26T04:27:34.179Z,70.46
2023-07-26T04:30:00.492Z,70.16
2023-07-26T04:32:26.882Z,70.33
2023-07-26T04:34:53.250Z,70.46
2023-07-26T04:37:19.614Z,70.49
2023-07-26T04:39:46.807Z,70.49
2023-07-26T04:42:13.137Z,70.45
2023-07-26T04:44:39.498Z,70.41
2023-07-26T04:47:06.060Z,70.22
2023-07-26T04:49:32.473Z,70.17
2023-07-26T04:51:58.790Z,70.31
2023-07-26T04:54:25.084Z,69.77
2023-07-26T04:56:51.657Z,69.49
2023-07-26T04:59:17.965Z,69.53
2023-07-26T05:01:44.372Z,69.75
2023-07-26T05:04:10.846Z,69.70
2023-07-26T05:06:37.524Z,69.34
2023-07-26T05:09:05.616Z,69.03
2023-07-26T05:11:32.697Z,69.13
2023-07-26T05:13:59.388Z,69.05
2023-07-26T05:16:25.836Z,68.34
2023-07-26T05:18:53.716Z,67.99
2023-07-26T05:21:19.987Z,67.69
2023-07-26T05:23:46.743Z,67.23
2023-07-26T05:26:13.261Z,66.60
2023-07-26T05:28:42.100Z,65.86
2023-07-26T05:31:08.448Z,64.99
2023-07-26T05:33:34.870Z,64.57
2023-07-26T05:36:01.373Z,64.56
2023-07-26T05:38:28.050Z,64.51
2023-07-26T05:41:03.704Z,63.74
2023-07-26T05:43:30.090Z,62.19
2023-07-26T05:45:58.060Z,61.40
2023-07-26T05:48:24.406Z,61.50
2023-07-26T05:50:50.792Z,61.28
2023-07-26T05:53:17.160Z,60.30
2023-07-26T05:55:43.583Z,59.95
2023-07-26T05:58:09.918Z,59.66
2023-07-26T06:00:36.345Z,58.63
2023-07-26T06:03:02.896Z,56.90
2023-07-26T06:05:29.825Z,53.76
2023-07-26T06:07:56.084Z,51.54
2023-07-26T06:10:22.403Z,50.57
2023-07-26T06:12:48.752Z,50.76
2023-07-26T06:15:15.196Z,51.19
2023-07-26T06:17:41.811Z,52.05
2023-07-26T06:20:11.397Z,52.30
2023-07-26T06:22:37.786Z,52.23
2023-07-26T06:25:05.718Z,52.21
2023-07-26T06:27:32.247Z,51.90
2023-07-26T06:30:04.718Z,52.08
2023-07-26T06:32:42.269Z,52.51
2023-07-26T06:35:11.841Z,52.54
2023-07-26T06:37:38.252Z,52.74
2023-07-26T06:40:06.378Z,52.41
2023-07-26T06:42:33.431Z,51.00
2023-07-26T06:44:59.884Z,50.08
2023-07-26T06:47:26.267Z,48.96
2023-07-26T06:49:52.875Z,49.10
2023-07-26T06:52:19.204Z,49.68
2023-07-26T06:54:45.744Z,49.36
2023-07-26T06:57:12.261Z,49.12
2023-07-26T06:59:38.668Z,49.63
2023-07-26T07:02:08.460Z,49.75
2023-07-26T07:04:35.631Z,49.57
2023-07-26T07:07:01.973Z,50.07
2023-07-26T07:09:29.254Z,50.29
2023-07-26T07:11:55.592Z,50.48
2023-07-26T07:14:22.892Z,51.16
2023-07-26T07:16:49.186Z,51.51
2023-07-26T07:19:15.597Z,51.70
2023-07-26T07:21:42.666Z,52.60
2023-07-26T07:24:09.011Z,53.27
2023-07-26T07:26:35.345Z,53.39
2023-07-26T07:29:01.656Z,53.40
2023-07-26T07:31:28.169Z,53.85
2023-07-26T07:33:54.509Z,53.95
2023-07-26T07:36:20.860Z,54.56
2023-07-26T07:38:47.753Z,54.84
2023-07-26T07:41:15.023Z,54.37
2023-07-26T07:43:41.405Z,54.46
2023-07-26T07:46:07.790Z,54.52
2023-07-26T07:48:34.946Z,54.77
2023-07-26T07:51:01.445Z,54.33
2023-07-26T07:53:29.885Z,54.24
2023-07-26T07:55:57.415Z,54.21
2023-07-26T07:58:23.938Z,53.79
2023-07-26T08:00:50.415Z,53.17
2023-07-26T08:03:16.787Z,52.79
2023-07-26T08:05:43.327Z,52.06
2023-07-26T08:08:09.742Z,52.48
2023-07-26T08:10:39.155Z,52.03
2023-07-26T08:13:05.609Z,51.35
2023-07-26T08:15:33.408Z,51.76
2023-07-26T08:18:00.082Z,51.20
2023-07-26T08:20:26.600Z,50.44
2023-07-26T08:22:54.173Z,50.27
2023-07-26T08:25:24.783Z,49.29
2023-07-26T08:27:51.060Z,48.99
2023-07-26T08:30:17.857Z,48.13
2023-07-26T08:32:44.202Z,47.05
2023-07-26T08:35:10.889Z,46.37
2023-07-26T08:37:37.320Z,45.74
2023-07-26T08:40:06.329Z,44.82
2023-07-26T08:42:32.817Z,44.26
2023-07-26T08:45:00.093Z,43.91
2023-07-26T08:47:27.944Z,43.22
2023-07-26T08:49:54.500Z,42.64
2023-07-26T08:52:22.156Z,43.17
2023-07-26T08:54:48.915Z,43.43
2023-07-26T08:57:19.207Z,44.08
2023-07-26T08:59:45.710Z,44.95
2023-07-26T09:02:15.715Z,45.72
2023-07-26T09:04:42.268Z,45.54
2023-07-26T09:07:08.841Z,46.10
2023-07-26T09:09:36.530Z,45.48
2023-07-26T09:12:03.231Z,46.10
2023-07-26T09:14:31.891Z,46.83
2023-07-26T09:17:00.624Z,47.72
2023-07-26T09:19:32.752Z,47.90
2023-07-26T09:22:01.730Z,47.67
2023-07-26T09:24:35.939Z,47.85
2023-07-26T09:27:12.897Z,47.47
2023-07-26T09:29:41.673Z,47.69
2023-07-26T09:32:08.568Z,48.58
2023-07-26T09:34:35.416Z,49.24
2023-07-26T09:37:02.569Z,49.26
2023-07-26T09:39:33.603Z,48.74
2023-07-26T09:42:06.240Z,49.85
2023-07-26T09:44:33.186Z,49.36
2023-07-26T09:47:00.179Z,48.87
2023-07-26T09:49:27.646Z,49.26
2023-07-26T09:54:34.837Z,48.97
2023-07-26T09:57:06.530Z,48.65
2023-07-26T09:59:36.531Z,48.88
2023-07-26T10:02:08.658Z,49.02
2023-07-26T10:04:49.660Z,49.11
2023-07-26T10:07:16.235Z,49.19
2023-07-26T10:09:47.378Z,50.12
2023-07-26T10:12:14.802Z,50.89
2023-07-26T10:14:42.367Z,50.47
2023-07-26T10:17:13.404Z,50.99
2023-07-26T10:19:41.506Z,51.25
2023-07-26T10:22:08.696Z,52.01
2023-07-26T10:24:37.364Z,51.84
2023-07-26T10:27:05.149Z,51.01
2023-07-26T10:29:31.968Z,50.09
2023-07-26T10:32:05.229Z,50.46
2023-07-26T10:34:31.907Z,50.30
2023-07-26T10:36:59.365Z,48.90
2023-07-26T10:39:33.286Z,48.13
2023-07-26T10:42:00.176Z,46.84
2023-07-26T10:44:26.551Z,46.29
2023-07-26T10:47:02.022Z,46.21
2023-07-26T10:49:30.276Z,47.11
2023-07-26T10:52:02.917Z,47.76
2023-07-26T10:54:39.721Z,47.19
2023-07-26T10:57:27.436Z,47.33
2023-07-26T11:00:06.487Z,48.09
2023-07-26T11:02:45.485Z,47.18
2023-07-26T11:05:22.937Z,45.86
2023-07-26T11:08:08.285Z,45.77
2023-07-26T11:10:37.059Z,47.21
2023-07-26T11:13:06.165Z,47.93
2023-07-26T11:16:13.478Z,47.57
2023-07-26T11:18:21.576Z,48.53
2023-07-26T11:20:51.152Z,48.84
2023-07-26T11:23:24.202Z,47.04
2023-07-26T11:25:55.097Z,46.32
2023-07-26T11:28:21.861Z,46.61
2023-07-26T11:30:59.253Z,46.36
2023-07-26T11:33:34.472Z,46.59
2023-07-26T11:36:03.575Z,47.12
2023-07-26T11:38:30.189Z,47.42
2023-07-26T11:40:57.266Z,47.24
2023-07-26T11:43:28.404Z,47.24
2023-07-26T11:45:56.540Z,47.33
2023-07-26T11:48:24.962Z,47.80
2023-07-26T11:50:55.920Z,47.97
2023-07-26T11:53:41.630Z,48.65
2023-07-26T11:56:09.892Z,49.37
2023-07-26T11:58:36.779Z,50.21
2023-07-26T12:01:04.198Z,51.01
2023-07-26T12:03:30.926Z,52.53
2023-07-26T12:05:59.795Z,54.38
2023-07-26T12:08:29.809Z,56.24
2023-07-26T12:10:56.172Z,58.36
2023-07-26T12:13:24.227Z,60.26
2023-07-26T12:15:53.436Z,61.36
2023-07-26T12:18:24.671Z,63.02
2023-07-26T12:23:24.622Z,64.99
2023-07-26T12:26:00.440Z,66.12
2023-07-26T12:28:27.294Z,67.81
2023-07-26T12:30:55.461Z,69.58
2023-07-26T12:33:23.053Z,70.83
2023-07-26T12:35:52.526Z,72.25
2023-07-26T12:38:18.939Z,73.40
2023-07-26T12:40:46.933Z,75.02
2023-07-26T12:43:30.532Z,76.58
2023-07-26T12:46:03.954Z,78.11
2023-07-26T12:48:31.490Z,79.16
2023-07-26T12:50:57.893Z,79.96
2023-07-26T12:53:25.222Z,80.81
2023-07-26T12:55:51.833Z,82.18
2023-07-26T12:58:18.408Z,82.35
2023-07-26T13:00:44.939Z,82.58
2023-07-26T13:03:11.614Z,83.58
2023-07-26T13:05:38.379Z,83.82
2023-07-26T13:08:05.024Z,83.86
2023-07-26T13:10:31.496Z,84.41
2023-07-26T13:12:57.795Z,84.93
2023-07-26T13:15:24.262Z,85.53
2023-07-26T13:17:52.981Z,86.16
2023-07-26T13:20:20.251Z,86.52
2023-07-26T13:22:47.828Z,87.07
2023-07-26T13:25:14.428Z,87.08
2023-07-26T13:27:42.232Z,87.29
2023-07-26T13:30:09.514Z,87.79
2023-07-26T13:32:36.560Z,88.03
2023-07-26T13:35:07.004Z,88.10
2023-07-26T13:37:35.135Z,87.91
2023-07-26T13:40:05.088Z,87.73
2023-07-26T13:42:35.186Z,87.47
2023-07-26T13:45:06.760Z,87.79
2023-07-26T13:47:33.481Z,88.09
2023-07-26T13:49:59.894Z,87.94
2023-07-26T13:52:26.408Z,88.19
2023-07-26T13:54:52.886Z,88.00
2023-07-26T13:57:19.333Z,88.20
2023-07-26T13:59:45.680Z,88.12
2023-07-26T14:02:12.185Z,88.13
2023-07-26T14:04:38.588Z,88.25
2023-07-26T14:07:05.686Z,88.24
2023-07-26T14:09:32.300Z,88.18
2023-07-26T14:12:00.340Z,88.50
2023-07-26T14:14:27.404Z,88.73
2023-07-26T14:16:53.830Z,88.65
2023-07-26T14:19:20.181Z,87.53
2023-07-26T14:21:46.854Z,87.65
2023-07-26T14:24:13.240Z,88.04
2023-07-26T14:26:39.579Z,87.66
2023-07-26T14:29:06.610Z,87.09
2023-07-26T14:31:33.083Z,87.52
2023-07-26T14:33:59.597Z,87.71
2023-07-26T14:36:26.037Z,87.65
2023-07-26T14:38:52.443Z,87.60
2023-07-26T14:41:20.043Z,87.77
2023-07-26T14:43:47.567Z,87.84
2023-07-26T14:46:13.964Z,87.95
2023-07-26T14:48:41.069Z,87.97
2023-07-26T14:51:07.618Z,87.49
2023-07-26T14:53:34.011Z,87.23
2023-07-26T14:56:00.391Z,87.20
2023-07-26T14:58:26.750Z,87.29
2023-07-26T15:00:53.575Z,87.11
2023-07-26T15:03:22.358Z,87.38
2023-07-26T15:05:49.090Z,87.31
2023-07-26T15:08:16.228Z,87.22
2023-07-26T15:10:42.739Z,87.46
2023-07-26T15:13:09.238Z,87.78
2023-07-26T15:15:35.693Z,88.00
2023-07-26T15:18:02.363Z,88.21
2023-07-26T15:20:28.942Z,88.43
2023-07-26T15:22:55.332Z,88.43
2023-07-26T15:25:21.641Z,88.52
2023-07-26T15:27:48.053Z,88.71
2023-07-26T15:30:14.498Z,88.89
2023-07-26T15:32:43.178Z,89.03
2023-07-26T15:35:11.505Z,89.02
2023-07-26T15:37:43.773Z,89.13
2023-07-26T15:40:10.550Z,89.39
2023-07-26T15:42:36.962Z,89.33
2023-07-26T15:45:20.276Z,89.27
2023-07-26T15:47:47.346Z,89.39
2023-07-26T15:50:15.378Z,89.28
2023-07-26T15:52:42.392Z,89.28
2023-07-26T15:55:09.451Z,89.39
2023-07-26T15:57:36.099Z,89.28
2023-07-26T16:00:02.931Z,89.04
2023-07-26T16:03:02.962Z,89.01
2023-07-26T16:10:16.916Z,88.61
2023-07-26T16:12:43.689Z,88.90
2023-07-26T16:20:09.799Z,89.24
2023-07-26T16:22:36.104Z,89.47
2023-07-26T16:25:02.939Z,89.79
2023-07-26T16:27:32.224Z,89.67
2023-07-26T16:29:58.602Z,89.46
2023-07-26T16:32:24.912Z,89.40
2023-07-26T16:34:51.331Z,89.25
2023-07-26T16:37:17.822Z,89.28
2023-07-26T16:39:44.182Z,89.54
2023-07-26T16:42:10.723Z,89.80
2023-07-26T16:44:37.212Z,89.95
2023-07-26T16:47:09.401Z,90.09
2023-07-26T16:49:38.277Z,90.37
2023-07-26T16:52:05.153Z,90.62
2023-07-26T16:54:31.589Z,90.72
2023-07-26T16:56:58.056Z,90.72
2023-07-26T16:59:26.315Z,90.64
2023-07-26T17:01:52.822Z,90.69
2023-07-26T17:04:19.594Z,90.74
2023-07-26T17:06:46.268Z,90.73
2023-07-26T17:09:12.781Z,90.68
2023-07-26T17:11:39.195Z,90.57
2023-07-26T17:14:05.703Z,90.50
2023-07-26T17:16:32.703Z,90.71
2023-07-26T17:18:59.487Z,90.45
2023-07-26T17:21:25.928Z,90.32
2023-07-26T17:23:52.365Z,90.39
2023-07-26T17:26:18.826Z,90.78
2023-07-26T17:28:46.442Z,90.91
2023-07-26T17:31:13.140Z,90.77
2023-07-26T17:33:39.539Z,90.73
2023-07-26T17:36:14.497Z,90.72
2023-07-26T17:38:41.108Z,90.30
2023-07-26T17:41:07.993Z,89.85
2023-07-26T17:43:36.319Z,89.91
2023-07-26T17:46:03.662Z,90.14
2023-07-26T17:48:34.980Z,90.33
2023-07-26T17:51:01.341Z,90.46
2023-07-26T17:53:28.937Z,90.32
2023-07-26T17:55:55.330Z,90.34
2023-07-26T17:58:21.666Z,90.56
2023-07-26T18:00:48.051Z,90.52
2023-07-26T18:03:14.648Z,90.58
2023-07-26T18:05:42.066Z,90.62
2023-07-26T18:08:08.520Z,90.55
2023-07-26T18:10:36.580Z,90.61
2023-07-26T18:13:03.782Z,90.68
2023-07-26T18:15:30.635Z,90.65
2023-07-26T18:17:57.127Z,90.49
2023-07-26T18:20:23.635Z,90.57
2023-07-26T18:22:50.048Z,90.69
2023-07-26T18:25:16.376Z,90.71
2023-07-26T18:27:43.083Z,90.56
2023-07-26T18:30:10.106Z,90.51
2023-07-26T18:32:36.597Z,90.62
2023-07-26T18:35:03.048Z,90.63
2023-07-26T18:37:31.515Z,90.66
2023-07-26T18:39:57.909Z,90.60
2023-07-26T18:42:24.311Z,90.47
2023-07-26T18:44:50.923Z,90.42
2023-07-26T18:47:17.326Z,90.58
2023-07-26T18:49:43.749Z,90.74
2023-07-26T18:52:10.481Z,90.74
2023-07-26T18:54:36.969Z,90.61
2023-07-26T18:57:03.757Z,90.65
2023-07-26T18:59:30.385Z,90.77
2023-07-26T19:01:57.150Z,90.88
2023-07-26T19:04:23.604Z,90.88
2023-07-26T19:06:50.172Z,90.90
2023-07-26T19:09:16.703Z,91.04
2023-07-26T19:11:43.115Z,91.14
2023-07-26T19:14:09.461Z,91.12
2023-07-26T19:16:36.340Z,91.04
2023-07-26T19:19:03.029Z,90.96
2023-07-26T19:21:29.401Z,91.00
2023-07-26T19:23:57.254Z,90.93
2023-07-26T19:26:24.000Z,91.05
2023-07-26T19:28:51.526Z,91.11
2023-07-26T19:31:17.999Z,91.05
2023-07-26T19:33:44.603Z,91.14
2023-07-26T19:36:11.348Z,91.11
2023-07-26T19:38:38.438Z,90.96
2023-07-26T19:41:08.947Z,91.04
2023-07-26T19:43:36.879Z,91.04
2023-07-26T19:46:06.586Z,91.10
2023-07-26T19:48:33.033Z,91.17
2023-07-26T19:51:00.925Z,91.37
2023-07-26T19:53:27.813Z,91.43
2023-07-26T19:55:54.456Z,91.51
2023-07-26T19:58:21.100Z,91.66
2023-07-26T20:00:47.551Z,91.72
2023-07-26T20:03:14.018Z,91.77
2023-07-26T20:05:46.380Z,91.83
2023-07-26T20:08:14.639Z,91.86
2023-07-26T20:10:45.250Z,91.89
2023-07-26T20:13:15.577Z,91.93
2023-07-26T20:15:42.971Z,91.94
2023-07-26T20:18:10.984Z,91.97
2023-07-26T20:20:37.519Z,92.11
2023-07-26T20:23:04.962Z,92.14
2023-07-26T20:25:32.955Z,92.21
2023-07-26T20:27:59.763Z,92.21
2023-07-26T20:30:26.962Z,92.09
2023-07-26T20:32:53.518Z,92.04
2023-07-26T20:35:19.946Z,92.08
2023-07-26T20:37:46.467Z,92.04
2023-07-26T20:40:12.867Z,91.97
2023-07-26T20:42:39.222Z,91.82
2023-07-26T20:45:08.389Z,91.60
2023-07-26T20:47:34.768Z,91.68
2023-07-26T20:50:01.201Z,91.72
2023-07-26T20:52:27.806Z,91.81
2023-07-26T20:54:54.707Z,91.80
2023-07-26T20:57:21.134Z,91.82
2023-07-26T20:59:47.523Z,91.82
2023-07-26T21:02:14.084Z,91.80
2023-07-26T21:04:40.440Z,91.90
2023-07-26T21:07:06.814Z,92.01
2023-07-26T21:09:33.157Z,92.13
2023-07-26T21:12:00.938Z,92.27
2023-07-26T21:14:27.476Z,92.32
2023-07-26T21:16:54.028Z,92.32
2023-07-26T21:19:20.773Z,92.37
2023-07-26T21:21:47.220Z,92.44
2023-07-26T21:24:13.612Z,92.47
2023-07-26T21:26:39.969Z,92.46
2023-07-26T21:29:06.317Z,92.49
2023-07-26T21:31:32.861Z,92.50
2023-07-26T21:33:59.200Z,92.55
2023-07-26T21:36:25.626Z,92.53
2023-07-26T21:38:52.012Z,92.52
2023-07-26T21:41:18.480Z,92.48
2023-07-26T21:43:45.023Z,92.45
2023-07-26T21:46:11.424Z,92.34
2023-07-26T21:48:37.891Z,92.31
2023-07-26T21:51:04.297Z,92.34
2023-07-26T21:53:30.755Z,92.39
2023-07-26T21:55:57.181Z,92.40
2023-07-26T21:58:23.561Z,92.50
2023-07-26T22:00:51.686Z,92.53
2023-07-26T22:03:18.143Z,92.50
2023-07-26T22:05:48.742Z,92.44
2023-07-26T22:08:15.800Z,92.42
2023-07-26T22:10:42.201Z,92.32
2023-07-26T22:13:10.661Z,92.23
2023-07-26T22:15:37.384Z,92.20
2023-07-26T22:18:04.087Z,92.21
2023-07-26T22:20:30.527Z,92.19
2023-07-26T22:22:56.920Z,92.13
2023-07-26T22:25:23.423Z,92.17
2023-07-26T22:27:49.897Z,92.22
2023-07-26T22:30:16.459Z,92.23
2023-07-26T22:32:42.911Z,92.20
2023-07-26T22:35:09.682Z,92.16
2023-07-26T22:37:35.953Z,92.18
2023-07-26T22:40:02.490Z,92.22
2023-07-26T22:42:33.653Z,92.24
2023-07-26T22:45:00.114Z,92.27
2023-07-26T22:47:26.868Z,92.32
2023-07-26T22:49:54.658Z,92.41
2023-07-26T22:52:22.018Z,92.50
2023-07-26T22:54:49.202Z,92.56
2023-07-26T22:57:16.272Z,92.55
2023-07-26T22:59:48.821Z,92.51
2023-07-26T23:02:16.198Z,92.48
2023-07-26T23:04:43.125Z,92.44
2023-07-26T23:07:09.503Z,92.52
2023-07-26T23:09:35.864Z,92.56
2023-07-26T23:12:02.240Z,92.51
2023-07-26T23:14:28.525Z,92.47
2023-07-26T23:16:54.893Z,92.48
2023-07-26T23:19:21.223Z,92.60
2023-07-26T23:21:47.629Z,92.69
2023-07-26T23:24:14.071Z,92.74
2023-07-26T23:26:40.414Z,92.78
2023-07-26T23:29:06.880Z,92.78
2023-07-26T23:31:34.746Z,92.82
2023-07-26T23:34:01.364Z,92.78
2023-07-26T23:36:27.776Z,92.63
2023-07-26T23:38:54.098Z,92.36
2023-07-26T23:41:22.572Z,91.98
2023-07-26T23:43:48.951Z,91.84
2023-07-26T23:46:15.986Z,91.83
2023-07-26T23:48:44.943Z,91.84
2023-07-26T23:51:11.925Z,91.89
2023-07-26T23:53:38.460Z,91.92
2023-07-26T23:56:05.153Z,91.92
2023-07-26T23:58:31.473Z,91.84
